sensor_id;sensor_type;location;lat;lon;timestamp;temperature;humidity
851;DHT22;412;51.400;7.480;2024-03-02T00:00:14;10.80;99.90
851;DHT22;412;51.400;7.480;2024-03-02T00:02:44;10.80;99.90
851;DHT22;412;51.400;7.480;2024-03-02T00:05:12;10.70;99.90
851;DHT22;412;51.400;7.480;2024-03-02T00:07:46;10.80;99.90
851;DHT22;412;51.400;7.480;2024-03-02T00:10:20;10.80;99.90
851;DHT22;412;51.400;7.480;2024-03-02T00:12:47;10.60;99.90
851;DHT22;412;51.400;7.480;2024-03-02T00:18:16;10.70;99.90
851;DHT22;412;51.400;7.480;2024-03-02T00:20:43;10.80;99.90
851;DHT22;412;51.400;7.480;2024-03-02T00:23:10;10.80;99.90
851;DHT22;412;51.400;7.480;2024-03-02T00:25:46;10.90;99.90
851;DHT22;412;51.400;7.480;2024-03-02T00:33:32;10.90;99.90
851;DHT22;412;51.400;7.480;2024-03-02T00:35:58;10.70;99.90
851;DHT22;412;51.400;7.480;2024-03-02T00:38:26;10.80;99.90
851;DHT22;412;51.400;7.480;2024-03-02T00:40:52;10.80;99.90
851;DHT22;412;51.400;7.480;2024-03-02T00:43:42;10.70;99.90
851;DHT22;412;51.400;7.480;2024-03-02T00:46:11;10.70;99.90
851;DHT22;412;51.400;7.480;2024-03-02T00:48:37;10.80;99.90
851;DHT22;412;51.400;7.480;2024-03-02T00:51:03;10.80;99.90
851;DHT22;412;51.400;7.480;2024-03-02T00:53:32;10.80;99.90
851;DHT22;412;51.400;7.480;2024-03-02T00:55:59;10.90;99.90
851;DHT22;412;51.400;7.480;2024-03-02T00:58:25;10.90;99.90
851;DHT22;412;51.400;7.480;2024-03-02T01:00:51;10.80;99.90
851;DHT22;412;51.400;7.480;2024-03-02T01:03:16;10.90;99.90
851;DHT22;412;51.400;7.480;2024-03-02T01:05:43;10.90;99.90
851;DHT22;412;51.400;7.480;2024-03-02T01:08:11;11.00;99.90
851;DHT22;412;51.400;7.480;2024-03-02T01:10:37;11.10;99.90
851;DHT22;412;51.400;7.480;2024-03-02T01:13:03;11.20;99.90
851;DHT22;412;51.400;7.480;2024-03-02T01:15:29;10.80;99.60
851;DHT22;412;51.400;7.480;2024-03-02T01:17:55;10.80;99.90
851;DHT22;412;51.400;7.480;2024-03-02T01:20:20;10.80;99.90
851;DHT22;412;51.400;7.480;2024-03-02T01:22:47;10.90;99.90
851;DHT22;412;51.400;7.480;2024-03-02T01:25:13;11.00;99.90
851;DHT22;412;51.400;7.480;2024-03-02T01:27:39;11.10;99.60
851;DHT22;412;51.400;7.480;2024-03-02T01:30:05;11.10;99.20
851;DHT22;412;51.400;7.480;2024-03-02T01:32:31;11.20;99.90
851;DHT22;412;51.400;7.480;2024-03-02T01:34:57;11.20;99.10
851;DHT22;412;51.400;7.480;2024-03-02T01:37:23;11.20;99.10
851;DHT22;412;51.400;7.480;2024-03-02T01:39:48;11.00;98.50
851;DHT22;412;51.400;7.480;2024-03-02T01:42:14;11.00;98.80
851;DHT22;412;51.400;7.480;2024-03-02T01:44:40;11.00;98.80
851;DHT22;412;51.400;7.480;2024-03-02T01:47:06;10.90;98.80
851;DHT22;412;51.400;7.480;2024-03-02T01:49:32;11.00;98.70
851;DHT22;412;51.400;7.480;2024-03-02T01:51:59;11.10;98.50
851;DHT22;412;51.400;7.480;2024-03-02T01:54:25;11.20;98.30
851;DHT22;412;51.400;7.480;2024-03-02T01:56:51;11.20;98.20
851;DHT22;412;51.400;7.480;2024-03-02T01:59:17;11.10;97.70
851;DHT22;412;51.400;7.480;2024-03-02T02:01:42;11.10;98.20
851;DHT22;412;51.400;7.480;2024-03-02T02:04:08;11.10;97.90
851;DHT22;412;51.400;7.480;2024-03-02T02:06:34;11.20;98.00
851;DHT22;412;51.400;7.480;2024-03-02T02:09:00;11.20;97.60
851;DHT22;412;51.400;7.480;2024-03-02T02:11:26;11.10;97.30
851;DHT22;412;51.400;7.480;2024-03-02T02:13:51;11.10;97.80
851;DHT22;412;51.400;7.480;2024-03-02T02:16:17;11.20;97.40
851;DHT22;412;51.400;7.480;2024-03-02T02:18:43;11.10;96.90
851;DHT22;412;51.400;7.480;2024-03-02T02:21:09;11.10;97.20
851;DHT22;412;51.400;7.480;2024-03-02T02:23:34;11.10;97.20
851;DHT22;412;51.400;7.480;2024-03-02T02:26:00;11.00;96.90
851;DHT22;412;51.400;7.480;2024-03-02T02:28:28;10.80;97.60
851;DHT22;412;51.400;7.480;2024-03-02T02:30:55;10.80;97.60
851;DHT22;412;51.400;7.480;2024-03-02T02:33:22;10.90;97.60
851;DHT22;412;51.400;7.480;2024-03-02T02:35:47;10.80;98.00
851;DHT22;412;51.400;7.480;2024-03-02T02:38:13;10.60;97.70
851;DHT22;412;51.400;7.480;2024-03-02T02:40:39;10.50;98.10
851;DHT22;412;51.400;7.480;2024-03-02T02:43:05;10.30;98.80
851;DHT22;412;51.400;7.480;2024-03-02T02:45:32;10.50;99.00
851;DHT22;412;51.400;7.480;2024-03-02T02:47:58;10.50;99.10
851;DHT22;412;51.400;7.480;2024-03-02T02:50:23;10.40;98.70
851;DHT22;412;51.400;7.480;2024-03-02T02:52:49;10.30;98.90
851;DHT22;412;51.400;7.480;2024-03-02T02:55:16;10.40;99.80
851;DHT22;412;51.400;7.480;2024-03-02T02:57:42;10.50;99.60
851;DHT22;412;51.400;7.480;2024-03-02T03:00:10;10.70;99.00
851;DHT22;412;51.400;7.480;2024-03-02T03:02:40;10.70;98.00
851;DHT22;412;51.400;7.480;2024-03-02T03:05:08;10.50;98.00
851;DHT22;412;51.400;7.480;2024-03-02T03:07:34;10.40;98.30
851;DHT22;412;51.400;7.480;2024-03-02T03:10:00;10.40;98.70
851;DHT22;412;51.400;7.480;2024-03-02T03:12:26;10.50;98.90
851;DHT22;412;51.400;7.480;2024-03-02T03:14:52;10.60;98.50
851;DHT22;412;51.400;7.480;2024-03-02T03:17:18;10.70;97.90
851;DHT22;412;51.400;7.480;2024-03-02T03:19:43;10.80;98.70
851;DHT22;412;51.400;7.480;2024-03-02T03:22:09;10.90;97.60
851;DHT22;412;51.400;7.480;2024-03-02T03:24:35;10.70;97.30
851;DHT22;412;51.400;7.480;2024-03-02T03:27:01;10.80;97.30
851;DHT22;412;51.400;7.480;2024-03-02T03:29:26;10.90;97.30
851;DHT22;412;51.400;7.480;2024-03-02T03:31:52;10.80;97.10
851;DHT22;412;51.400;7.480;2024-03-02T03:34:18;10.90;97.20
851;DHT22;412;51.400;7.480;2024-03-02T03:36:44;10.90;96.60
851;DHT22;412;51.400;7.480;2024-03-02T03:39:09;11.00;96.80
851;DHT22;412;51.400;7.480;2024-03-02T03:41:36;11.10;96.80
851;DHT22;412;51.400;7.480;2024-03-02T03:44:01;11.10;96.60
851;DHT22;412;51.400;7.480;2024-03-02T03:46:27;11.10;96.40
851;DHT22;412;51.400;7.480;2024-03-02T03:48:53;11.10;96.10
851;DHT22;412;51.400;7.480;2024-03-02T03:51:18;10.90;96.00
851;DHT22;412;51.400;7.480;2024-03-02T03:53:44;10.80;96.40
851;DHT22;412;51.400;7.480;2024-03-02T03:56:10;10.70;96.80
851;DHT22;412;51.400;7.480;2024-03-02T03:58:36;10.70;97.00
851;DHT22;412;51.400;7.480;2024-03-02T04:01:01;10.70;96.80
851;DHT22;412;51.400;7.480;2024-03-02T04:03:27;10.80;97.00
851;DHT22;412;51.400;7.480;2024-03-02T04:05:53;10.90;96.80
851;DHT22;412;51.400;7.480;2024-03-02T04:08:18;10.80;96.70
851;DHT22;412;51.400;7.480;2024-03-02T04:10:44;10.90;96.80
851;DHT22;412;51.400;7.480;2024-03-02T04:13:10;10.90;97.30
851;DHT22;412;51.400;7.480;2024-03-02T04:15:36;11.00;97.00
851;DHT22;412;51.400;7.480;2024-03-02T04:18:01;11.10;96.90
851;DHT22;412;51.400;7.480;2024-03-02T04:20:27;11.10;96.60
851;DHT22;412;51.400;7.480;2024-03-02T04:22:53;11.00;96.40
851;DHT22;412;51.400;7.480;2024-03-02T04:25:18;11.00;96.40
851;DHT22;412;51.400;7.480;2024-03-02T04:27:45;10.90;97.00
851;DHT22;412;51.400;7.480;2024-03-02T04:30:12;10.90;97.60
851;DHT22;412;51.400;7.480;2024-03-02T04:32:38;10.90;97.00
851;DHT22;412;51.400;7.480;2024-03-02T04:35:05;10.90;97.00
851;DHT22;412;51.400;7.480;2024-03-02T04:37:34;10.80;97.20
851;DHT22;412;51.400;7.480;2024-03-02T04:40:00;10.80;97.20
851;DHT22;412;51.400;7.480;2024-03-02T04:42:26;10.90;98.10
851;DHT22;412;51.400;7.480;2024-03-02T04:44:51;10.90;97.10
851;DHT22;412;51.400;7.480;2024-03-02T04:47:17;10.90;97.00
851;DHT22;412;51.400;7.480;2024-03-02T04:49:43;10.90;97.50
851;DHT22;412;51.400;7.480;2024-03-02T04:52:09;11.00;97.40
851;DHT22;412;51.400;7.480;2024-03-02T04:54:35;11.00;97.10
851;DHT22;412;51.400;7.480;2024-03-02T04:57:23;10.80;97.20
851;DHT22;412;51.400;7.480;2024-03-02T04:59:49;10.80;97.90
851;DHT22;412;51.400;7.480;2024-03-02T05:02:14;10.60;97.90
851;DHT22;412;51.400;7.480;2024-03-02T05:04:40;10.60;98.30
851;DHT22;412;51.400;7.480;2024-03-02T05:07:07;10.70;97.80
851;DHT22;412;51.400;7.480;2024-03-02T05:09:33;10.70;98.00
851;DHT22;412;51.400;7.480;2024-03-02T05:11:58;10.70;98.00
851;DHT22;412;51.400;7.480;2024-03-02T05:14:53;10.80;98.20
851;DHT22;412;51.400;7.480;2024-03-02T05:17:19;10.90;97.50
851;DHT22;412;51.400;7.480;2024-03-02T05:19:44;10.90;97.50
851;DHT22;412;51.400;7.480;2024-03-02T05:22:10;11.00;97.50
851;DHT22;412;51.400;7.480;2024-03-02T05:24:36;11.00;97.10
851;DHT22;412;51.400;7.480;2024-03-02T05:27:02;11.00;97.10
851;DHT22;412;51.400;7.480;2024-03-02T05:29:28;11.00;97.20
851;DHT22;412;51.400;7.480;2024-03-02T05:31:53;11.00;96.90
851;DHT22;412;51.400;7.480;2024-03-02T05:34:19;10.90;97.10
851;DHT22;412;51.400;7.480;2024-03-02T05:36:45;10.80;97.20
851;DHT22;412;51.400;7.480;2024-03-02T05:39:10;10.60;97.80
851;DHT22;412;51.400;7.480;2024-03-02T05:41:36;10.50;98.10
851;DHT22;412;51.400;7.480;2024-03-02T05:44:04;10.60;98.10
851;DHT22;412;51.400;7.480;2024-03-02T05:46:29;10.50;98.50
851;DHT22;412;51.400;7.480;2024-03-02T05:48:55;10.60;98.40
851;DHT22;412;51.400;7.480;2024-03-02T05:51:21;10.50;98.40
851;DHT22;412;51.400;7.480;2024-03-02T05:53:46;10.40;98.90
851;DHT22;412;51.400;7.480;2024-03-02T05:56:13;10.30;99.20
851;DHT22;412;51.400;7.480;2024-03-02T05:58:38;10.30;99.20
851;DHT22;412;51.400;7.480;2024-03-02T06:01:23;10.30;99.30
851;DHT22;412;51.400;7.480;2024-03-02T06:03:57;10.10;99.80
851;DHT22;412;51.400;7.480;2024-03-02T06:06:24;10.20;99.90
851;DHT22;412;51.400;7.480;2024-03-02T06:08:50;10.20;99.90
851;DHT22;412;51.400;7.480;2024-03-02T06:11:16;10.30;99.60
851;DHT22;412;51.400;7.480;2024-03-02T06:13:42;10.40;99.70
851;DHT22;412;51.400;7.480;2024-03-02T06:16:07;10.10;99.70
851;DHT22;412;51.400;7.480;2024-03-02T06:18:34;10.10;99.90
851;DHT22;412;51.400;7.480;2024-03-02T06:21:00;10.20;99.90
851;DHT22;412;51.400;7.480;2024-03-02T06:23:27;10.30;99.90
851;DHT22;412;51.400;7.480;2024-03-02T06:25:53;10.40;99.80
851;DHT22;412;51.400;7.480;2024-03-02T06:28:18;10.20;99.80
851;DHT22;412;51.400;7.480;2024-03-02T06:30:44;10.30;99.70
851;DHT22;412;51.400;7.480;2024-03-02T06:33:10;10.30;99.80
851;DHT22;412;51.400;7.480;2024-03-02T06:35:36;10.40;99.90
851;DHT22;412;51.400;7.480;2024-03-02T06:38:02;10.20;99.90
851;DHT22;412;51.400;7.480;2024-03-02T06:40:28;10.20;99.90
851;DHT22;412;51.400;7.480;2024-03-02T06:42:54;10.20;99.90
851;DHT22;412;51.400;7.480;2024-03-02T06:45:20;10.20;99.90
851;DHT22;412;51.400;7.480;2024-03-02T06:47:45;10.40;99.90
851;DHT22;412;51.400;7.480;2024-03-02T06:50:11;10.40;99.90
851;DHT22;412;51.400;7.480;2024-03-02T06:52:38;10.20;99.90
851;DHT22;412;51.400;7.480;2024-03-02T06:55:04;10.10;99.90
851;DHT22;412;51.400;7.480;2024-03-02T06:57:31;10.10;99.90
851;DHT22;412;51.400;7.480;2024-03-02T06:59:56;10.20;99.90
851;DHT22;412;51.400;7.480;2024-03-02T07:02:27;10.20;99.90
851;DHT22;412;51.400;7.480;2024-03-02T07:04:53;10.30;99.90
851;DHT22;412;51.400;7.480;2024-03-02T07:07:19;10.30;99.90
851;DHT22;412;51.400;7.480;2024-03-02T07:09:45;10.30;99.90
851;DHT22;412;51.400;7.480;2024-03-02T07:12:11;10.10;99.90
851;DHT22;412;51.400;7.480;2024-03-02T07:14:37;10.20;99.90
851;DHT22;412;51.400;7.480;2024-03-02T07:17:37;10.20;99.90
851;DHT22;412;51.400;7.480;2024-03-02T07:20:03;10.20;99.90
851;DHT22;412;51.400;7.480;2024-03-02T07:22:29;10.20;99.90
851;DHT22;412;51.400;7.480;2024-03-02T07:24:55;10.40;99.90
851;DHT22;412;51.400;7.480;2024-03-02T07:27:21;10.30;99.90
851;DHT22;412;51.400;7.480;2024-03-02T07:29:47;10.50;99.90
851;DHT22;412;51.400;7.480;2024-03-02T07:32:12;10.60;99.90
851;DHT22;412;51.400;7.480;2024-03-02T07:34:38;10.60;99.90
851;DHT22;412;51.400;7.480;2024-03-02T07:37:04;10.60;99.90
851;DHT22;412;51.400;7.480;2024-03-02T07:39:31;10.70;99.90
851;DHT22;412;51.400;7.480;2024-03-02T07:41:57;10.80;99.90
851;DHT22;412;51.400;7.480;2024-03-02T07:44:23;10.80;99.90
851;DHT22;412;51.400;7.480;2024-03-02T07:46:49;10.70;99.90
851;DHT22;412;51.400;7.480;2024-03-02T07:49:20;10.70;99.90
851;DHT22;412;51.400;7.480;2024-03-02T07:51:46;10.70;99.90
851;DHT22;412;51.400;7.480;2024-03-02T07:54:12;10.80;99.90
851;DHT22;412;51.400;7.480;2024-03-02T07:56:38;10.80;99.90
851;DHT22;412;51.400;7.480;2024-03-02T07:59:04;10.70;99.90
851;DHT22;412;51.400;7.480;2024-03-02T08:01:31;10.80;99.90
851;DHT22;412;51.400;7.480;2024-03-02T08:03:58;10.70;99.90
851;DHT22;412;51.400;7.480;2024-03-02T08:06:27;10.80;99.90
851;DHT22;412;51.400;7.480;2024-03-02T08:08:58;10.90;99.90
851;DHT22;412;51.400;7.480;2024-03-02T08:11:24;11.10;99.90
851;DHT22;412;51.400;7.480;2024-03-02T08:13:49;11.10;99.40
851;DHT22;412;51.400;7.480;2024-03-02T08:16:16;11.20;99.10
851;DHT22;412;51.400;7.480;2024-03-02T08:18:45;11.20;98.60
851;DHT22;412;51.400;7.480;2024-03-02T08:21:12;11.20;98.80
851;DHT22;412;51.400;7.480;2024-03-02T08:23:38;11.30;99.10
851;DHT22;412;51.400;7.480;2024-03-02T08:26:04;11.30;98.50
851;DHT22;412;51.400;7.480;2024-03-02T08:28:29;11.30;98.30
851;DHT22;412;51.400;7.480;2024-03-02T08:30:55;11.30;98.70
851;DHT22;412;51.400;7.480;2024-03-02T08:33:22;11.20;98.90
851;DHT22;412;51.400;7.480;2024-03-02T08:35:48;11.20;99.10
851;DHT22;412;51.400;7.480;2024-03-02T08:38:13;11.30;98.50
851;DHT22;412;51.400;7.480;2024-03-02T08:40:39;11.40;98.90
851;DHT22;412;51.400;7.480;2024-03-02T08:43:05;11.20;98.00
851;DHT22;412;51.400;7.480;2024-03-02T08:45:30;11.10;98.50
851;DHT22;412;51.400;7.480;2024-03-02T08:47:56;11.10;98.90
851;DHT22;412;51.400;7.480;2024-03-02T08:50:22;11.10;99.40
851;DHT22;412;51.400;7.480;2024-03-02T08:52:48;11.40;99.40
851;DHT22;412;51.400;7.480;2024-03-02T08:55:13;11.50;98.50
851;DHT22;412;51.400;7.480;2024-03-02T08:57:40;11.70;98.50
851;DHT22;412;51.400;7.480;2024-03-02T09:00:07;11.60;97.90
851;DHT22;412;51.400;7.480;2024-03-02T09:02:33;11.70;97.80
851;DHT22;412;51.400;7.480;2024-03-02T09:04:59;11.80;98.10
851;DHT22;412;51.400;7.480;2024-03-02T09:07:25;12.00;98.50
851;DHT22;412;51.400;7.480;2024-03-02T09:09:51;12.20;97.50
851;DHT22;412;51.400;7.480;2024-03-02T09:12:18;12.30;98.40
851;DHT22;412;51.400;7.480;2024-03-02T09:14:45;12.70;99.90
851;DHT22;412;51.400;7.480;2024-03-02T09:17:11;12.80;98.00
851;DHT22;412;51.400;7.480;2024-03-02T09:19:37;12.80;96.70
851;DHT22;412;51.400;7.480;2024-03-02T09:22:04;12.90;99.90
851;DHT22;412;51.400;7.480;2024-03-02T09:24:31;13.20;99.30
851;DHT22;412;51.400;7.480;2024-03-02T09:26:59;13.60;98.60
851;DHT22;412;51.400;7.480;2024-03-02T09:29:24;13.90;95.60
851;DHT22;412;51.400;7.480;2024-03-02T09:31:50;14.20;95.40
851;DHT22;412;51.400;7.480;2024-03-02T09:34:16;14.50;92.80
851;DHT22;412;51.400;7.480;2024-03-02T09:36:42;14.20;92.40
851;DHT22;412;51.400;7.480;2024-03-02T09:39:08;14.40;92.60
851;DHT22;412;51.400;7.480;2024-03-02T09:41:38;14.60;92.60
851;DHT22;412;51.400;7.480;2024-03-02T09:44:05;14.60;91.10
851;DHT22;412;51.400;7.480;2024-03-02T09:46:31;14.90;92.50
851;DHT22;412;51.400;7.480;2024-03-02T09:48:58;15.10;90.10
851;DHT22;412;51.400;7.480;2024-03-02T09:51:24;14.90;90.00
851;DHT22;412;51.400;7.480;2024-03-02T09:53:50;15.10;90.40
851;DHT22;412;51.400;7.480;2024-03-02T09:56:16;15.30;88.80
851;DHT22;412;51.400;7.480;2024-03-02T09:58:44;15.60;88.00
851;DHT22;412;51.400;7.480;2024-03-02T10:01:10;15.80;87.80
851;DHT22;412;51.400;7.480;2024-03-02T10:03:36;16.10;88.70
851;DHT22;412;51.400;7.480;2024-03-02T10:06:22;16.30;85.40
851;DHT22;412;51.400;7.480;2024-03-02T10:08:48;16.40;84.60
851;DHT22;412;51.400;7.480;2024-03-02T10:11:32;16.40;83.00
851;DHT22;412;51.400;7.480;2024-03-02T10:14:08;16.60;82.80
851;DHT22;412;51.400;7.480;2024-03-02T10:16:38;16.40;82.10
851;DHT22;412;51.400;7.480;2024-03-02T10:19:21;16.50;82.50
851;DHT22;412;51.400;7.480;2024-03-02T10:21:51;16.50;83.00
851;DHT22;412;51.400;7.480;2024-03-02T10:24:18;16.70;83.50
851;DHT22;412;51.400;7.480;2024-03-02T10:26:44;17.00;81.30
851;DHT22;412;51.400;7.480;2024-03-02T10:29:11;17.00;78.60
851;DHT22;412;51.400;7.480;2024-03-02T10:31:38;17.00;78.90
851;DHT22;412;51.400;7.480;2024-03-02T10:34:05;17.20;78.50
851;DHT22;412;51.400;7.480;2024-03-02T10:36:33;17.20;78.00
851;DHT22;412;51.400;7.480;2024-03-02T10:39:05;17.10;77.50
851;DHT22;412;51.400;7.480;2024-03-02T10:41:38;17.30;77.70
851;DHT22;412;51.400;7.480;2024-03-02T10:44:06;17.20;76.50
851;DHT22;412;51.400;7.480;2024-03-02T10:46:35;17.40;77.00
851;DHT22;412;51.400;7.480;2024-03-02T10:49:03;17.60;75.20
851;DHT22;412;51.400;7.480;2024-03-02T10:51:33;17.50;76.60
851;DHT22;412;51.400;7.480;2024-03-02T10:54:00;17.80;75.70
851;DHT22;412;51.400;7.480;2024-03-02T10:56:43;18.20;76.60
851;DHT22;412;51.400;7.480;2024-03-02T11:01:53;18.90;71.00
851;DHT22;412;51.400;7.480;2024-03-02T11:04:21;19.20;71.20
851;DHT22;412;51.400;7.480;2024-03-02T11:06:50;19.50;68.70
851;DHT22;412;51.400;7.480;2024-03-02T11:09:20;19.70;67.20
851;DHT22;412;51.400;7.480;2024-03-02T11:11:53;19.70;65.30
851;DHT22;412;51.400;7.480;2024-03-02T11:14:24;19.60;65.10
851;DHT22;412;51.400;7.480;2024-03-02T11:16:51;19.10;65.30
851;DHT22;412;51.400;7.480;2024-03-02T11:19:18;19.10;66.70
851;DHT22;412;51.400;7.480;2024-03-02T11:21:44;19.00;67.00
851;DHT22;412;51.400;7.480;2024-03-02T11:24:28;19.20;68.30
851;DHT22;412;51.400;7.480;2024-03-02T11:26:58;19.10;66.80
851;DHT22;412;51.400;7.480;2024-03-02T11:32:21;18.20;67.10
851;DHT22;412;51.400;7.480;2024-03-02T11:34:50;17.90;68.80
851;DHT22;412;51.400;7.480;2024-03-02T11:37:17;18.00;71.70
851;DHT22;412;51.400;7.480;2024-03-02T11:39:45;18.40;71.30
851;DHT22;412;51.400;7.480;2024-03-02T11:42:11;18.40;68.00
851;DHT22;412;51.400;7.480;2024-03-02T11:44:42;18.20;68.90
851;DHT22;412;51.400;7.480;2024-03-02T11:47:11;18.20;69.70
851;DHT22;412;51.400;7.480;2024-03-02T11:49:49;18.40;69.70
851;DHT22;412;51.400;7.480;2024-03-02T11:52:16;18.50;68.20
851;DHT22;412;51.400;7.480;2024-03-02T11:54:47;18.60;67.80
851;DHT22;412;51.400;7.480;2024-03-02T11:57:17;18.70;69.10
851;DHT22;412;51.400;7.480;2024-03-02T11:59:43;18.80;68.40
851;DHT22;412;51.400;7.480;2024-03-02T12:02:35;18.90;66.60
851;DHT22;412;51.400;7.480;2024-03-02T12:05:03;19.00;66.90
851;DHT22;412;51.400;7.480;2024-03-02T12:07:30;19.20;68.30
851;DHT22;412;51.400;7.480;2024-03-02T12:10:02;19.60;67.80
851;DHT22;412;51.400;7.480;2024-03-02T12:12:28;19.70;65.40
851;DHT22;412;51.400;7.480;2024-03-02T12:14:54;19.30;65.20
851;DHT22;412;51.400;7.480;2024-03-02T12:17:22;19.10;66.70
851;DHT22;412;51.400;7.480;2024-03-02T12:19:48;19.00;65.80
851;DHT22;412;51.400;7.480;2024-03-02T12:22:14;18.70;67.20
851;DHT22;412;51.400;7.480;2024-03-02T12:24:41;18.50;66.90
851;DHT22;412;51.400;7.480;2024-03-02T12:27:07;18.30;68.60
851;DHT22;412;51.400;7.480;2024-03-02T12:29:34;18.20;68.10
851;DHT22;412;51.400;7.480;2024-03-02T12:32:00;18.20;69.10
851;DHT22;412;51.400;7.480;2024-03-02T12:34:27;18.00;68.30
851;DHT22;412;51.400;7.480;2024-03-02T12:36:53;18.10;68.70
851;DHT22;412;51.400;7.480;2024-03-02T12:39:19;18.00;68.10
851;DHT22;412;51.400;7.480;2024-03-02T12:41:50;17.90;70.30
851;DHT22;412;51.400;7.480;2024-03-02T12:44:19;17.70;70.50
851;DHT22;412;51.400;7.480;2024-03-02T12:46:46;17.30;70.90
851;DHT22;412;51.400;7.480;2024-03-02T12:49:13;17.10;71.70
851;DHT22;412;51.400;7.480;2024-03-02T12:51:40;16.90;72.70
851;DHT22;412;51.400;7.480;2024-03-02T12:54:10;16.60;72.60
851;DHT22;412;51.400;7.480;2024-03-02T12:56:38;16.50;73.50
851;DHT22;412;51.400;7.480;2024-03-02T12:59:05;16.20;73.50
851;DHT22;412;51.400;7.480;2024-03-02T13:01:31;16.20;75.50
851;DHT22;412;51.400;7.480;2024-03-02T13:03:58;16.10;74.90
851;DHT22;412;51.400;7.480;2024-03-02T13:06:24;16.10;74.50
851;DHT22;412;51.400;7.480;2024-03-02T13:08:53;16.10;75.20
851;DHT22;412;51.400;7.480;2024-03-02T13:11:19;15.90;75.80
851;DHT22;412;51.400;7.480;2024-03-02T13:13:46;15.80;76.70
851;DHT22;412;51.400;7.480;2024-03-02T13:16:12;15.90;75.70
851;DHT22;412;51.400;7.480;2024-03-02T13:18:39;15.90;75.30
851;DHT22;412;51.400;7.480;2024-03-02T13:21:06;15.90;74.50
851;DHT22;412;51.400;7.480;2024-03-02T13:23:31;15.90;74.80
851;DHT22;412;51.400;7.480;2024-03-02T13:25:58;16.00;75.50
851;DHT22;412;51.400;7.480;2024-03-02T13:28:27;15.80;75.30
851;DHT22;412;51.400;7.480;2024-03-02T13:30:53;15.70;75.80
851;DHT22;412;51.400;7.480;2024-03-02T13:33:19;15.70;76.80
851;DHT22;412;51.400;7.480;2024-03-02T13:35:51;15.80;76.50
851;DHT22;412;51.400;7.480;2024-03-02T13:38:20;15.70;76.70
851;DHT22;412;51.400;7.480;2024-03-02T13:40:49;15.70;77.10
851;DHT22;412;51.400;7.480;2024-03-02T13:43:17;15.60;77.40
851;DHT22;412;51.400;7.480;2024-03-02T13:45:44;15.60;77.50
851;DHT22;412;51.400;7.480;2024-03-02T13:48:10;15.60;78.20
851;DHT22;412;51.400;7.480;2024-03-02T13:50:35;15.50;77.80
851;DHT22;412;51.400;7.480;2024-03-02T13:53:01;15.30;77.90
851;DHT22;412;51.400;7.480;2024-03-02T13:55:28;15.30;77.90
851;DHT22;412;51.400;7.480;2024-03-02T13:57:54;15.40;78.60
851;DHT22;412;51.400;7.480;2024-03-02T14:00:20;15.40;78.10
851;DHT22;412;51.400;7.480;2024-03-02T14:02:46;15.20;78.20
851;DHT22;412;51.400;7.480;2024-03-02T14:05:15;15.20;77.80
851;DHT22;412;51.400;7.480;2024-03-02T14:07:41;15.10;78.00
851;DHT22;412;51.400;7.480;2024-03-02T14:10:07;15.00;77.80
851;DHT22;412;51.400;7.480;2024-03-02T14:12:33;15.00;78.60
851;DHT22;412;51.400;7.480;2024-03-02T14:14:59;15.10;79.50
851;DHT22;412;51.400;7.480;2024-03-02T14:17:27;15.10;79.30
851;DHT22;412;51.400;7.480;2024-03-02T14:19:53;15.10;80.00
851;DHT22;412;51.400;7.480;2024-03-02T14:22:20;15.10;80.90
851;DHT22;412;51.400;7.480;2024-03-02T14:24:46;15.00;80.70
851;DHT22;412;51.400;7.480;2024-03-02T14:27:12;15.10;81.80
851;DHT22;412;51.400;7.480;2024-03-02T14:29:43;15.20;81.90
851;DHT22;412;51.400;7.480;2024-03-02T14:32:09;15.10;81.40
851;DHT22;412;51.400;7.480;2024-03-02T14:34:35;15.00;81.30
851;DHT22;412;51.400;7.480;2024-03-02T14:37:00;15.10;82.70
851;DHT22;412;51.400;7.480;2024-03-02T14:39:27;15.10;82.20
851;DHT22;412;51.400;7.480;2024-03-02T14:41:53;15.10;81.80
851;DHT22;412;51.400;7.480;2024-03-02T14:44:20;14.90;81.50
851;DHT22;412;51.400;7.480;2024-03-02T14:46:47;15.00;82.50
851;DHT22;412;51.400;7.480;2024-03-02T14:49:13;15.00;82.70
851;DHT22;412;51.400;7.480;2024-03-02T14:51:39;14.90;82.00
851;DHT22;412;51.400;7.480;2024-03-02T14:54:05;15.00;82.10
851;DHT22;412;51.400;7.480;2024-03-02T14:56:31;15.00;80.90
851;DHT22;412;51.400;7.480;2024-03-02T14:58:57;15.10;80.60
851;DHT22;412;51.400;7.480;2024-03-02T15:01:23;15.10;80.50
851;DHT22;412;51.400;7.480;2024-03-02T15:03:50;15.10;79.80
851;DHT22;412;51.400;7.480;2024-03-02T15:06:16;15.20;80.00
851;DHT22;412;51.400;7.480;2024-03-02T15:08:42;15.20;79.40
851;DHT22;412;51.400;7.480;2024-03-02T15:11:08;15.30;79.30
851;DHT22;412;51.400;7.480;2024-03-02T15:13:34;15.40;79.40
851;DHT22;412;51.400;7.480;2024-03-02T15:16:00;15.40;79.70
851;DHT22;412;51.400;7.480;2024-03-02T15:18:26;15.40;79.40
851;DHT22;412;51.400;7.480;2024-03-02T15:20:53;15.40;79.30
851;DHT22;412;51.400;7.480;2024-03-02T15:23:18;15.50;79.80
851;DHT22;412;51.400;7.480;2024-03-02T15:25:44;15.50;79.10
851;DHT22;412;51.400;7.480;2024-03-02T15:28:10;15.50;80.80
851;DHT22;412;51.400;7.480;2024-03-02T15:30:36;15.50;80.40
851;DHT22;412;51.400;7.480;2024-03-02T15:33:02;15.50;80.10
851;DHT22;412;51.400;7.480;2024-03-02T15:35:28;15.50;79.50
851;DHT22;412;51.400;7.480;2024-03-02T15:37:53;15.40;79.80
851;DHT22;412;51.400;7.480;2024-03-02T15:40:19;15.40;79.10
851;DHT22;412;51.400;7.480;2024-03-02T15:42:45;15.40;79.20
851;DHT22;412;51.400;7.480;2024-03-02T15:45:10;15.30;79.80
851;DHT22;412;51.400;7.480;2024-03-02T15:47:36;15.30;80.40
851;DHT22;412;51.400;7.480;2024-03-02T15:50:02;15.20;79.40
851;DHT22;412;51.400;7.480;2024-03-02T15:52:30;15.30;79.40
851;DHT22;412;51.400;7.480;2024-03-02T15:54:55;15.30;79.10
851;DHT22;412;51.400;7.480;2024-03-02T15:57:21;15.20;78.20
851;DHT22;412;51.400;7.480;2024-03-02T15:59:48;15.10;78.40
851;DHT22;412;51.400;7.480;2024-03-02T16:02:15;15.00;77.80
851;DHT22;412;51.400;7.480;2024-03-02T16:04:41;14.80;78.50
851;DHT22;412;51.400;7.480;2024-03-02T16:07:07;14.90;79.00
851;DHT22;412;51.400;7.480;2024-03-02T16:09:33;14.80;79.20
851;DHT22;412;51.400;7.480;2024-03-02T16:11:59;14.90;78.70
851;DHT22;412;51.400;7.480;2024-03-02T16:14:24;15.00;79.10
851;DHT22;412;51.400;7.480;2024-03-02T16:16:50;15.10;78.60
851;DHT22;412;51.400;7.480;2024-03-02T16:19:16;15.20;78.50
851;DHT22;412;51.400;7.480;2024-03-02T16:21:42;15.30;77.90
851;DHT22;412;51.400;7.480;2024-03-02T16:24:08;15.30;77.30
851;DHT22;412;51.400;7.480;2024-03-02T16:26:34;15.30;76.70
851;DHT22;412;51.400;7.480;2024-03-02T16:29:00;15.20;76.00
851;DHT22;412;51.400;7.480;2024-03-02T16:31:25;15.10;75.90
851;DHT22;412;51.400;7.480;2024-03-02T16:33:51;15.00;76.00
851;DHT22;412;51.400;7.480;2024-03-02T16:36:17;15.00;77.20
851;DHT22;412;51.400;7.480;2024-03-02T16:38:43;15.00;76.10
851;DHT22;412;51.400;7.480;2024-03-02T16:41:09;15.00;75.70
851;DHT22;412;51.400;7.480;2024-03-02T16:43:35;15.00;76.10
851;DHT22;412;51.400;7.480;2024-03-02T16:46:01;14.90;76.30